sensor_id;sensor_type;location;lat;lon;timestamp;P1;durP1;ratioP1;P2;durP2;ratioP2
59207;SDS011;44977;53.132;6.408;2023-01-26T00:00:29;43.92;;;24.85;;
59207;SDS011;44977;53.132;6.408;2023-01-26T00:05:30;44.90;;;25.65;;
59207;SDS011;44977;53.132;6.408;2023-01-26T00:10:31;41.83;;;24.98;;
59207;SDS011;44977;53.132;6.408;2023-01-26T00:15:34;41.42;;;24.70;;
59207;SDS011;44977;53.132;6.408;2023-01-26T00:20:35;41.33;;;24.38;;
59207;SDS011;44977;53.132;6.408;2023-01-26T00:25:37;44.35;;;24.85;;
59207;SDS011;44977;53.132;6.408;2023-01-26T00:30:39;41.10;;;23.20;;
59207;SDS011;44977;53.132;6.408;2023-01-26T00:35:40;42.38;;;24.40;;
59207;SDS011;44977;53.132;6.408;2023-01-26T00:40:43;42.50;;;24.15;;
59207;SDS011;44977;53.132;6.408;2023-01-26T00:45:44;44.70;;;24.77;;
59207;SDS011;44977;53.132;6.408;2023-01-26T00:50:45;40.97;;;23.30;;
59207;SDS011;44977;53.132;6.408;2023-01-26T00:55:45;43.40;;;23.65;;
59207;SDS011;44977;53.132;6.408;2023-01-26T01:00:52;41.92;;;23.67;;
59207;SDS011;44977;53.132;6.408;2023-01-26T01:05:53;45.20;;;25.70;;
59207;SDS011;44977;53.132;6.408;2023-01-26T01:11:07;40.95;;;23.52;;
59207;SDS011;44977;53.132;6.408;2023-01-26T01:16:10;41.10;;;23.35;;
59207;SDS011;44977;53.132;6.408;2023-01-26T01:21:13;43.22;;;23.55;;
59207;SDS011;44977;53.132;6.408;2023-01-26T01:26:15;39.50;;;22.90;;
59207;SDS011;44977;53.132;6.408;2023-01-26T01:31:16;40.85;;;22.42;;
59207;SDS011;44977;53.132;6.408;2023-01-26T01:36:17;41.53;;;22.40;;
59207;SDS011;44977;53.132;6.408;2023-01-26T01:41:19;37.13;;;21.48;;
59207;SDS011;44977;53.132;6.408;2023-01-26T01:46:34;41.97;;;22.05;;
59207;SDS011;44977;53.132;6.408;2023-01-26T01:51:40;13.40;;;5.38;;
59207;SDS011;44977;53.132;6.408;2023-01-26T01:57:19;37.95;;;21.67;;
59207;SDS011;44977;53.132;6.408;2023-01-26T02:02:26;34.08;;;20.55;;
59207;SDS011;44977;53.132;6.408;2023-01-26T02:07:27;36.10;;;20.48;;
59207;SDS011;44977;53.132;6.408;2023-01-26T02:12:31;38.75;;;21.15;;
59207;SDS011;44977;53.132;6.408;2023-01-26T02:17:33;35.33;;;20.30;;
59207;SDS011;44977;53.132;6.408;2023-01-26T02:27:55;35.70;;;19.67;;
59207;SDS011;44977;53.132;6.408;2023-01-26T02:32:56;33.60;;;19.30;;
59207;SDS011;44977;53.132;6.408;2023-01-26T02:37:56;34.50;;;18.75;;
59207;SDS011;44977;53.132;6.408;2023-01-26T02:42:57;32.92;;;19.27;;
59207;SDS011;44977;53.132;6.408;2023-01-26T02:47:58;34.67;;;19.48;;
59207;SDS011;44977;53.132;6.408;2023-01-26T02:53:03;33.03;;;19.10;;
59207;SDS011;44977;53.132;6.408;2023-01-26T02:58:04;34.42;;;19.45;;
59207;SDS011;44977;53.132;6.408;2023-01-26T03:03:11;31.73;;;18.48;;
59207;SDS011;44977;53.132;6.408;2023-01-26T03:08:14;35.90;;;19.63;;
59207;SDS011;44977;53.132;6.408;2023-01-26T03:13:14;32.40;;;18.67;;
59207;SDS011;44977;53.132;6.408;2023-01-26T03:18:15;35.65;;;20.17;;
59207;SDS011;44977;53.132;6.408;2023-01-26T03:23:36;35.03;;;19.35;;
59207;SDS011;44977;53.132;6.408;2023-01-26T03:28:56;38.22;;;21.63;;
59207;SDS011;44977;53.132;6.408;2023-01-26T03:33:56;37.15;;;21.05;;
59207;SDS011;44977;53.132;6.408;2023-01-26T03:38:57;35.33;;;19.88;;
59207;SDS011;44977;53.132;6.408;2023-01-26T03:43:57;38.83;;;20.95;;
59207;SDS011;44977;53.132;6.408;2023-01-26T03:49:17;44.85;;;22.75;;
59207;SDS011;44977;53.132;6.408;2023-01-26T03:54:36;39.63;;;22.02;;
59207;SDS011;44977;53.132;6.408;2023-01-26T03:59:56;38.33;;;21.60;;
59207;SDS011;44977;53.132;6.408;2023-01-26T04:04:56;40.55;;;22.13;;
59207;SDS011;44977;53.132;6.408;2023-01-26T04:10:16;43.15;;;22.13;;
59207;SDS011;44977;53.132;6.408;2023-01-26T04:15:16;39.08;;;21.70;;
59207;SDS011;44977;53.132;6.408;2023-01-26T04:20:36;39.08;;;21.20;;
59207;SDS011;44977;53.132;6.408;2023-01-26T04:25:55;33.80;;;20.23;;
59207;SDS011;44977;53.132;6.408;2023-01-26T04:30:56;39.33;;;22.25;;
59207;SDS011;44977;53.132;6.408;2023-01-26T04:36:01;46.92;;;23.77;;
59207;SDS011;44977;53.132;6.408;2023-01-26T04:41:05;40.20;;;21.80;;
59207;SDS011;44977;53.132;6.408;2023-01-26T04:46:06;42.40;;;22.10;;
59207;SDS011;44977;53.132;6.408;2023-01-26T04:51:11;39.00;;;22.45;;
59207;SDS011;44977;53.132;6.408;2023-01-26T04:56:38;38.42;;;21.70;;
59207;SDS011;44977;53.132;6.408;2023-01-26T05:01:37;37.03;;;20.98;;
59207;SDS011;44977;53.132;6.408;2023-01-26T05:06:38;42.35;;;22.35;;
59207;SDS011;44977;53.132;6.408;2023-01-26T05:11:41;43.63;;;23.73;;
59207;SDS011;44977;53.132;6.408;2023-01-26T05:16:41;50.53;;;25.73;;
59207;SDS011;44977;53.132;6.408;2023-01-26T05:21:42;37.60;;;21.65;;
59207;SDS011;44977;53.132;6.408;2023-01-26T05:26:43;41.38;;;23.05;;
59207;SDS011;44977;53.132;6.408;2023-01-26T05:31:43;40.85;;;22.30;;
59207;SDS011;44977;53.132;6.408;2023-01-26T05:36:44;53.17;;;25.10;;
59207;SDS011;44977;53.132;6.408;2023-01-26T05:41:44;50.40;;;25.00;;
59207;SDS011;44977;53.132;6.408;2023-01-26T05:46:45;44.35;;;24.38;;
59207;SDS011;44977;53.132;6.408;2023-01-26T05:51:46;45.42;;;23.60;;
59207;SDS011;44977;53.132;6.408;2023-01-26T05:56:47;46.80;;;24.45;;
59207;SDS011;44977;53.132;6.408;2023-01-26T06:01:47;47.42;;;25.02;;
59207;SDS011;44977;53.132;6.408;2023-01-26T06:06:50;57.25;;;26.63;;
59207;SDS011;44977;53.132;6.408;2023-01-26T06:11:55;54.00;;;26.13;;
59207;SDS011;44977;53.132;6.408;2023-01-26T06:16:57;48.65;;;25.52;;
59207;SDS011;44977;53.132;6.408;2023-01-26T06:21:58;50.15;;;25.67;;
59207;SDS011;44977;53.132;6.408;2023-01-26T06:26:58;50.40;;;26.02;;
59207;SDS011;44977;53.132;6.408;2023-01-26T06:31:59;48.80;;;23.98;;
59207;SDS011;44977;53.132;6.408;2023-01-26T06:37:00;50.15;;;25.55;;
59207;SDS011;44977;53.132;6.408;2023-01-26T06:42:01;43.10;;;22.83;;
59207;SDS011;44977;53.132;6.408;2023-01-26T06:47:01;46.70;;;22.85;;
59207;SDS011;44977;53.132;6.408;2023-01-26T06:52:15;47.88;;;24.58;;
59207;SDS011;44977;53.132;6.408;2023-01-26T06:57:27;45.17;;;23.58;;
59207;SDS011;44977;53.132;6.408;2023-01-26T07:02:27;59.97;;;26.50;;
59207;SDS011;44977;53.132;6.408;2023-01-26T07:07:28;54.53;;;24.63;;
59207;SDS011;44977;53.132;6.408;2023-01-26T07:12:44;63.03;;;27.45;;
59207;SDS011;44977;53.132;6.408;2023-01-26T07:17:44;63.58;;;27.55;;
59207;SDS011;44977;53.132;6.408;2023-01-26T07:22:45;61.80;;;26.92;;
59207;SDS011;44977;53.132;6.408;2023-01-26T07:27:46;56.83;;;25.95;;
59207;SDS011;44977;53.132;6.408;2023-01-26T07:32:46;52.97;;;25.00;;
59207;SDS011;44977;53.132;6.408;2023-01-26T07:37:47;57.33;;;26.67;;
59207;SDS011;44977;53.132;6.408;2023-01-26T07:42:48;63.85;;;28.65;;
59207;SDS011;44977;53.132;6.408;2023-01-26T07:47:48;62.90;;;29.95;;
59207;SDS011;44977;53.132;6.408;2023-01-26T07:52:49;53.38;;;25.73;;
59207;SDS011;44977;53.132;6.408;2023-01-26T07:57:51;61.75;;;26.10;;
59207;SDS011;44977;53.132;6.408;2023-01-26T08:02:52;63.03;;;25.83;;
59207;SDS011;44977;53.132;6.408;2023-01-26T08:07:56;61.10;;;24.30;;
59207;SDS011;44977;53.132;6.408;2023-01-26T08:12:58;91.85;;;24.92;;
59207;SDS011;44977;53.132;6.408;2023-01-26T08:17:59;50.20;;;17.67;;
59207;SDS011;44977;53.132;6.408;2023-01-26T08:23:02;55.25;;;15.50;;
59207;SDS011;44977;53.132;6.408;2023-01-26T08:28:03;48.45;;;14.13;;
59207;SDS011;44977;53.132;6.408;2023-01-26T08:33:04;53.25;;;15.38;;
59207;SDS011;44977;53.132;6.408;2023-01-26T08:38:04;62.90;;;16.25;;
59207;SDS011;44977;53.132;6.408;2023-01-26T08:43:05;48.20;;;13.70;;
59207;SDS011;44977;53.132;6.408;2023-01-26T08:48:06;44.40;;;10.88;;
59207;SDS011;44977;53.132;6.408;2023-01-26T08:53:06;52.83;;;11.30;;
59207;SDS011;44977;53.132;6.408;2023-01-26T08:58:07;43.80;;;12.48;;
59207;SDS011;44977;53.132;6.408;2023-01-26T09:03:08;42.22;;;10.52;;
59207;SDS011;44977;53.132;6.408;2023-01-26T09:08:09;43.28;;;10.10;;
59207;SDS011;44977;53.132;6.408;2023-01-26T09:13:10;32.33;;;8.68;;
59207;SDS011;44977;53.132;6.408;2023-01-26T09:18:10;38.33;;;8.55;;
59207;SDS011;44977;53.132;6.408;2023-01-26T09:23:11;41.25;;;9.10;;
59207;SDS011;44977;53.132;6.408;2023-01-26T09:28:12;37.33;;;8.18;;
59207;SDS011;44977;53.132;6.408;2023-01-26T09:33:12;29.73;;;7.43;;
59207;SDS011;44977;53.132;6.408;2023-01-26T09:38:13;33.17;;;7.38;;
59207;SDS011;44977;53.132;6.408;2023-01-26T09:54:12;29.83;;;6.45;;
59207;SDS011;44977;53.132;6.408;2023-01-26T10:04:39;32.20;;;6.77;;
59207;SDS011;44977;53.132;6.408;2023-01-26T10:09:44;28.30;;;5.72;;
59207;SDS011;44977;53.132;6.408;2023-01-26T10:14:50;27.67;;;5.90;;
59207;SDS011;44977;53.132;6.408;2023-01-26T10:19:55;26.40;;;5.60;;
59207;SDS011;44977;53.132;6.408;2023-01-26T10:25:13;28.60;;;5.22;;
59207;SDS011;44977;53.132;6.408;2023-01-26T10:30:16;23.48;;;4.80;;
59207;SDS011;44977;53.132;6.408;2023-01-26T10:35:20;31.67;;;5.88;;
59207;SDS011;44977;53.132;6.408;2023-01-26T10:40:24;25.85;;;5.70;;
59207;SDS011;44977;53.132;6.408;2023-01-26T10:45:31;21.63;;;5.18;;
59207;SDS011;44977;53.132;6.408;2023-01-26T10:50:32;24.35;;;5.63;;
59207;SDS011;44977;53.132;6.408;2023-01-26T10:55:34;22.40;;;5.75;;
59207;SDS011;44977;53.132;6.408;2023-01-26T11:00:36;29.92;;;6.40;;
59207;SDS011;44977;53.132;6.408;2023-01-26T11:05:36;24.77;;;5.88;;
59207;SDS011;44977;53.132;6.408;2023-01-26T11:10:38;26.02;;;6.43;;
59207;SDS011;44977;53.132;6.408;2023-01-26T11:16:03;18.15;;;4.63;;
59207;SDS011;44977;53.132;6.408;2023-01-26T11:31:57;17.23;;;4.35;;
59207;SDS011;44977;53.132;6.408;2023-01-26T11:37:43;16.85;;;4.30;;
59207;SDS011;44977;53.132;6.408;2023-01-26T11:43:10;19.48;;;4.00;;
59207;SDS011;44977;53.132;6.408;2023-01-26T11:48:45;18.90;;;3.85;;
59207;SDS011;44977;53.132;6.408;2023-01-26T11:59:24;19.75;;;3.95;;
59207;SDS011;44977;53.132;6.408;2023-01-26T12:04:31;17.00;;;4.28;;
59207;SDS011;44977;53.132;6.408;2023-01-26T12:09:38;17.25;;;4.00;;
59207;SDS011;44977;53.132;6.408;2023-01-26T12:14:49;19.33;;;3.78;;
59207;SDS011;44977;53.132;6.408;2023-01-26T12:20:26;17.88;;;3.38;;
59207;SDS011;44977;53.132;6.408;2023-01-26T12:25:49;19.48;;;3.50;;
59207;SDS011;44977;53.132;6.408;2023-01-26T12:46:23;16.10;;;3.00;;
59207;SDS011;44977;53.132;6.408;2023-01-26T12:51:38;13.20;;;2.80;;
59207;SDS011;44977;53.132;6.408;2023-01-26T12:56:48;12.73;;;2.40;;
59207;SDS011;44977;53.132;6.408;2023-01-26T13:01:51;12.90;;;2.20;;
59207;SDS011;44977;53.132;6.408;2023-01-26T13:07:35;10.82;;;2.00;;
59207;SDS011;44977;53.132;6.408;2023-01-26T13:12:54;10.32;;;2.00;;
59207;SDS011;44977;53.132;6.408;2023-01-26T13:17:58;13.10;;;2.63;;
59207;SDS011;44977;53.132;6.408;2023-01-26T13:23:00;11.65;;;2.40;;
59207;SDS011;44977;53.132;6.408;2023-01-26T13:28:02;11.95;;;3.00;;
59207;SDS011;44977;53.132;6.408;2023-01-26T13:33:12;12.95;;;3.05;;
59207;SDS011;44977;53.132;6.408;2023-01-26T13:38:32;13.75;;;2.78;;
59207;SDS011;44977;53.132;6.408;2023-01-26T13:43:41;16.35;;;3.33;;
59207;SDS011;44977;53.132;6.408;2023-01-26T14:04:13;14.23;;;3.55;;
59207;SDS011;44977;53.132;6.408;2023-01-26T14:09:15;13.45;;;2.60;;
59207;SDS011;44977;53.132;6.408;2023-01-26T14:14:22;13.48;;;3.10;;
59207;SDS011;44977;53.132;6.408;2023-01-26T14:19:26;10.45;;;2.42;;
59207;SDS011;44977;53.132;6.408;2023-01-26T14:29:29;14.30;;;3.05;;
59207;SDS011;44977;53.132;6.408;2023-01-26T14:34:30;15.57;;;3.30;;
59207;SDS011;44977;53.132;6.408;2023-01-26T14:39:30;13.07;;;3.28;;
59207;SDS011;44977;53.132;6.408;2023-01-26T14:44:31;15.43;;;3.65;;
59207;SDS011;44977;53.132;6.408;2023-01-26T14:54:44;16.33;;;4.03;;
59207;SDS011;44977;53.132;6.408;2023-01-26T14:59:48;16.27;;;4.20;;
59207;SDS011;44977;53.132;6.408;2023-01-26T15:04:52;16.17;;;4.13;;
59207;SDS011;44977;53.132;6.408;2023-01-26T15:09:59;16.27;;;3.40;;
59207;SDS011;44977;53.132;6.408;2023-01-26T15:15:00;16.80;;;3.17;;
59207;SDS011;44977;53.132;6.408;2023-01-26T15:20:02;20.00;;;3.45;;
59207;SDS011;44977;53.132;6.408;2023-01-26T15:25:22;18.02;;;3.90;;
59207;SDS011;44977;53.132;6.408;2023-01-26T15:30:29;22.85;;;6.10;;
59207;SDS011;44977;53.132;6.408;2023-01-26T15:35:32;17.50;;;4.22;;
59207;SDS011;44977;53.132;6.408;2023-01-26T15:40:33;18.60;;;4.35;;
59207;SDS011;44977;53.132;6.408;2023-01-26T15:45:34;19.42;;;5.20;;
59207;SDS011;44977;53.132;6.408;2023-01-26T15:50:35;16.77;;;4.20;;
59207;SDS011;44977;53.132;6.408;2023-01-26T15:55:36;17.20;;;3.97;;
59207;SDS011;44977;53.132;6.408;2023-01-26T16:00:38;17.52;;;4.25;;
59207;SDS011;44977;53.132;6.408;2023-01-26T16:05:38;18.90;;;4.10;;
59207;SDS011;44977;53.132;6.408;2023-01-26T16:10:39;16.15;;;3.65;;
59207;SDS011;44977;53.132;6.408;2023-01-26T16:15:50;19.15;;;4.70;;
59207;SDS011;44977;53.132;6.408;2023-01-26T16:20:52;20.38;;;5.03;;
59207;SDS011;44977;53.132;6.408;2023-01-26T16:25:53;20.23;;;4.70;;
59207;SDS011;44977;53.132;6.408;2023-01-26T16:30:54;21.42;;;4.40;;
59207;SDS011;44977;53.132;6.408;2023-01-26T16:35:55;23.98;;;5.00;;
59207;SDS011;44977;53.132;6.408;2023-01-26T16:40:55;19.15;;;4.10;;
59207;SDS011;44977;53.132;6.408;2023-01-26T16:45:56;17.95;;;4.22;;
59207;SDS011;44977;53.132;6.408;2023-01-26T16:50:57;18.88;;;5.07;;
59207;SDS011;44977;53.132;6.408;2023-01-26T16:55:58;19.90;;;4.85;;
59207;SDS011;44977;53.132;6.408;2023-01-26T17:00:58;19.55;;;4.63;;
59207;SDS011;44977;53.132;6.408;2023-01-26T17:05:59;21.88;;;5.07;;
59207;SDS011;44977;53.132;6.408;2023-01-26T17:11:00;18.73;;;5.35;;
59207;SDS011;44977;53.132;6.408;2023-01-26T17:16:01;23.20;;;4.97;;
59207;SDS011;44977;53.132;6.408;2023-01-26T17:21:02;23.95;;;5.30;;
59207;SDS011;44977;53.132;6.408;2023-01-26T17:26:03;19.55;;;5.57;;
59207;SDS011;44977;53.132;6.408;2023-01-26T17:31:07;19.85;;;4.75;;
59207;SDS011;44977;53.132;6.408;2023-01-26T17:36:09;17.15;;;4.10;;
59207;SDS011;44977;53.132;6.408;2023-01-26T17:41:10;18.52;;;4.85;;
59207;SDS011;44977;53.132;6.408;2023-01-26T17:46:12;19.70;;;4.43;;
59207;SDS011;44977;53.132;6.408;2023-01-26T17:51:15;20.25;;;5.40;;
59207;SDS011;44977;53.132;6.408;2023-01-26T17:56:19;21.73;;;5.38;;
59207;SDS011;44977;53.132;6.408;2023-01-26T18:01:21;23.30;;;5.32;;
59207;SDS011;44977;53.132;6.408;2023-01-26T18:06:23;23.38;;;5.93;;
59207;SDS011;44977;53.132;6.408;2023-01-26T18:11:24;22.67;;;5.22;;
59207;SDS011;44977;53.132;6.408;2023-01-26T18:16:24;24.33;;;5.13;;
59207;SDS011;44977;53.132;6.408;2023-01-26T18:21:26;17.67;;;5.30;;
59207;SDS011;44977;53.132;6.408;2023-01-26T18:26:29;21.27;;;5.35;;
59207;SDS011;44977;53.132;6.408;2023-01-26T18:31:33;18.98;;;4.72;;
59207;SDS011;44977;53.132;6.408;2023-01-26T18:36:35;18.90;;;5.03;;
59207;SDS011;44977;53.132;6.408;2023-01-26T18:41:36;17.50;;;4.47;;
59207;SDS011;44977;53.132;6.408;2023-01-26T18:46:39;16.50;;;4.40;;
59207;SDS011;44977;53.132;6.408;2023-01-26T18:51:40;18.52;;;4.55;;
59207;SDS011;44977;53.132;6.408;2023-01-26T18:56:46;18.03;;;5.00;;
59207;SDS011;44977;53.132;6.408;2023-01-26T19:01:47;20.40;;;4.30;;
59207;SDS011;44977;53.132;6.408;2023-01-26T19:06:48;19.38;;;4.45;;
59207;SDS011;44977;53.132;6.408;2023-01-26T19:11:49;19.70;;;4.85;;
59207;SDS011;44977;53.132;6.408;2023-01-26T19:16:53;19.17;;;4.53;;
59207;SDS011;44977;53.132;6.408;2023-01-26T19:21:54;14.50;;;4.07;;
59207;SDS011;44977;53.132;6.408;2023-01-26T19:26:55;18.75;;;4.95;;
59207;SDS011;44977;53.132;6.408;2023-01-26T19:31:55;17.33;;;4.25;;
59207;SDS011;44977;53.132;6.408;2023-01-26T19:36:56;20.20;;;4.63;;
59207;SDS011;44977;53.132;6.408;2023-01-26T19:41:57;18.15;;;4.28;;
59207;SDS011;44977;53.132;6.408;2023-01-26T19:46:57;22.27;;;5.03;;
59207;SDS011;44977;53.132;6.408;2023-01-26T19:52:10;17.38;;;4.53;;
59207;SDS011;44977;53.132;6.408;2023-01-26T19:57:26;17.65;;;3.78;;
59207;SDS011;44977;53.132;6.408;2023-01-26T20:02:40;19.40;;;3.85;;
59207;SDS011;44977;53.132;6.408;2023-01-26T20:07:41;17.45;;;3.97;;
59207;SDS011;44977;53.132;6.408;2023-01-26T20:12:48;19.30;;;4.47;;
59207;SDS011;44977;53.132;6.408;2023-01-26T20:17:49;17.05;;;3.70;;
59207;SDS011;44977;53.132;6.408;2023-01-26T20:22:59;20.00;;;4.20;;
59207;SDS011;44977;53.132;6.408;2023-01-26T20:27:59;17.20;;;4.18;;
59207;SDS011;44977;53.132;6.408;2023-01-26T20:33:04;16.15;;;4.22;;
59207;SDS011;44977;53.132;6.408;2023-01-26T20:38:05;19.15;;;4.22;;
59207;SDS011;44977;53.132;6.408;2023-01-26T20:43:15;17.92;;;5.15;;
59207;SDS011;44977;53.132;6.408;2023-01-26T20:48:24;18.80;;;4.30;;
59207;SDS011;44977;53.132;6.408;2023-01-26T20:53:26;19.10;;;3.90;;
59207;SDS011;44977;53.132;6.408;2023-01-26T20:58:29;16.35;;;4.30;;
59207;SDS011;44977;53.132;6.408;2023-01-26T21:03:31;18.95;;;5.88;;
59207;SDS011;44977;53.132;6.408;2023-01-26T21:08:40;20.42;;;6.57;;
59207;SDS011;44977;53.132;6.408;2023-01-26T21:13:41;18.42;;;6.20;;
59207;SDS011;44977;53.132;6.408;2023-01-26T21:18:45;17.67;;;5.03;;
59207;SDS011;44977;53.132;6.408;2023-01-26T21:23:50;15.73;;;4.72;;
59207;SDS011;44977;53.132;6.408;2023-01-26T21:29:00;15.75;;;5.05;;
59207;SDS011;44977;53.132;6.408;2023-01-26T21:34:01;15.55;;;4.85;;
59207;SDS011;44977;53.132;6.408;2023-01-26T21:39:04;17.77;;;5.93;;
59207;SDS011;44977;53.132;6.408;2023-01-26T21:44:13;16.23;;;6.32;;
59207;SDS011;44977;53.132;6.408;2023-01-26T21:50:02;14.18;;;6.43;;
59207;SDS011;44977;53.132;6.408;2023-01-26T21:55:03;19.02;;;8.02;;
59207;SDS011;44977;53.132;6.408;2023-01-26T22:00:04;19.38;;;8.35;;
59207;SDS011;44977;53.132;6.408;2023-01-26T22:05:05;17.48;;;7.95;;
59207;SDS011;44977;53.132;6.408;2023-01-26T22:10:08;15.68;;;7.95;;
59207;SDS011;44977;53.132;6.408;2023-01-26T22:15:09;18.52;;;8.48;;
59207;SDS011;44977;53.132;6.408;2023-01-26T22:20:10;13.70;;;7.72;;
59207;SDS011;44977;53.132;6.408;2023-01-26T22:25:11;15.73;;;8.05;;
59207;SDS011;44977;53.132;6.408;2023-01-26T22:30:12;16.10;;;7.45;;
59207;SDS011;44977;53.132;6.408;2023-01-26T22:35:13;15.38;;;7.43;;
59207;SDS011;44977;53.132;6.408;2023-01-26T22:40:14;15.77;;;7.85;;
59207;SDS011;44977;53.132;6.408;2023-01-26T22:45:15;14.60;;;8.30;;
59207;SDS011;44977;53.132;6.408;2023-01-26T22:50:16;14.85;;;9.05;;
59207;SDS011;44977;53.132;6.408;2023-01-26T22:55:17;14.48;;;9.50;;
59207;SDS011;44977;53.132;6.408;2023-01-26T23:00:17;15.38;;;9.88;;
59207;SDS011;44977;53.132;6.408;2023-01-26T23:05:18;17.08;;;11.02;;
59207;SDS011;44977;53.132;6.408;2023-01-26T23:10:19;16.10;;;11.10;;
59207;SDS011;44977;53.132;6.408;2023-01-26T23:15:20;16.23;;;10.73;;
59207;SDS011;44977;53.132;6.408;2023-01-26T23:20:21;17.48;;;11.55;;
59207;SDS011;44977;53.132;6.408;2023-01-26T23:25:22;16.83;;;12.45;;
59207;SDS011;44977;53.132;6.408;2023-01-26T23:30:55;19.38;;;11.95;;
59207;SDS011;44977;53.132;6.408;2023-01-26T23:35:57;16.95;;;12.25;;
59207;SDS011;44977;53.132;6.408;2023-01-26T23:40:58;16.63;;;12.02;;
59207;SDS011;44977;53.132;6.408;2023-01-26T23:46:05;16.23;;;12.65;;
59207;SDS011;44977;53.132;6.408;2023-01-26T23:51:08;18.08;;;13.10;;
59207;SDS011;44977;53.132;6.408;2023-01-26T23:56:13;15.80;;;12.57;;
